sensor_id;sensor_type;location;lat;lon;timestamp;pressure;altitude;pressure_sealevel;temperature;humidity
15670;BME280;18524;45.190;5.732;2022-09-29T00:03:48;97720.09;;;14.60;100.00
15670;BME280;18524;45.190;5.732;2022-09-29T00:08:38;97718.09;;;14.62;100.00
15670;BME280;18524;45.190;5.732;2022-09-29T00:13:29;97708.59;;;14.68;100.00
15670;BME280;18524;45.190;5.732;2022-09-29T00:18:19;97697.78;;;14.63;100.00
15670;BME280;18524;45.190;5.732;2022-09-29T00:23:09;97679.50;;;14.61;100.00
15670;BME280;18524;45.190;5.732;2022-09-29T00:28:00;97683.97;;;14.61;100.00
15670;BME280;18524;45.190;5.732;2022-09-29T00:32:50;97696.97;;;14.62;100.00
15670;BME280;18524;45.190;5.732;2022-09-29T00:37:41;97714.44;;;14.63;100.00
15670;BME280;18524;45.190;5.732;2022-09-29T00:42:31;97699.63;;;14.62;100.00
15670;BME280;18524;45.190;5.732;2022-09-29T00:47:22;97690.06;;;14.61;100.00
15670;BME280;18524;45.190;5.732;2022-09-29T00:52:34;97684.22;;;14.66;100.00
15670;BME280;18524;45.190;5.732;2022-09-29T00:57:35;97698.63;;;14.63;100.00
15670;BME280;18524;45.190;5.732;2022-09-29T01:02:29;97689.16;;;14.54;100.00
15670;BME280;18524;45.190;5.732;2022-09-29T01:07:23;97674.34;;;14.53;100.00
15670;BME280;18524;45.190;5.732;2022-09-29T01:12:14;97675.25;;;14.60;100.00
15670;BME280;18524;45.190;5.732;2022-09-29T01:17:05;97673.16;;;14.56;100.00
15670;BME280;18524;45.190;5.732;2022-09-29T01:22:02;97674.22;;;14.61;100.00
15670;BME280;18524;45.190;5.732;2022-09-29T01:27:06;97677.81;;;14.54;100.00
15670;BME280;18524;45.190;5.732;2022-09-29T01:37:44;97663.69;;;14.47;100.00
15670;BME280;18524;45.190;5.732;2022-09-29T01:42:36;97663.69;;;14.47;100.00
15670;BME280;18524;45.190;5.732;2022-09-29T01:47:39;97664.16;;;14.50;100.00
15670;BME280;18524;45.190;5.732;2022-09-29T01:52:33;97655.25;;;14.51;100.00
15670;BME280;18524;45.190;5.732;2022-09-29T01:57:31;97655.69;;;14.55;100.00
15670;BME280;18524;45.190;5.732;2022-09-29T02:07:36;97658.13;;;14.42;100.00
15670;BME280;18524;45.190;5.732;2022-09-29T02:12:29;97665.50;;;14.46;100.00
15670;BME280;18524;45.190;5.732;2022-09-29T02:17:25;97660.22;;;14.46;100.00
15670;BME280;18524;45.190;5.732;2022-09-29T02:22:18;97663.34;;;14.50;100.00
15670;BME280;18524;45.190;5.732;2022-09-29T02:27:09;97650.16;;;14.50;100.00
15670;BME280;18524;45.190;5.732;2022-09-29T02:32:02;97652.50;;;14.45;100.00
15670;BME280;18524;45.190;5.732;2022-09-29T02:51:54;97638.31;;;14.46;100.00
15670;BME280;18524;45.190;5.732;2022-09-29T02:57:00;97646.69;;;14.49;100.00
15670;BME280;18524;45.190;5.732;2022-09-29T03:01:57;97630.78;;;14.43;100.00
15670;BME280;18524;45.190;5.732;2022-09-29T03:06:48;97633.84;;;14.46;100.00
15670;BME280;18524;45.190;5.732;2022-09-29T03:11:38;97619.84;;;14.46;100.00
15670;BME280;18524;45.190;5.732;2022-09-29T03:16:29;97647.75;;;14.40;100.00
15670;BME280;18524;45.190;5.732;2022-09-29T03:21:19;97669.88;;;14.39;100.00
15670;BME280;18524;45.190;5.732;2022-09-29T03:26:09;97674.50;;;14.37;100.00
15670;BME280;18524;45.190;5.732;2022-09-29T03:31:05;97657.50;;;14.39;100.00
15670;BME280;18524;45.190;5.732;2022-09-29T03:35:56;97647.75;;;14.40;100.00
15670;BME280;18524;45.190;5.732;2022-09-29T03:40:46;97649.75;;;14.38;100.00
15670;BME280;18524;45.190;5.732;2022-09-29T03:45:36;97683.22;;;14.37;100.00
15670;BME280;18524;45.190;5.732;2022-09-29T03:50:27;97681.06;;;14.26;100.00
15670;BME280;18524;45.190;5.732;2022-09-29T03:55:17;97675.06;;;14.18;100.00
15670;BME280;18524;45.190;5.732;2022-09-29T04:00:08;97665.53;;;14.17;100.00
15670;BME280;18524;45.190;5.732;2022-09-29T04:04:58;97671.16;;;14.14;100.00
15670;BME280;18524;45.190;5.732;2022-09-29T04:09:49;97689.97;;;14.11;100.00
15670;BME280;18524;45.190;5.732;2022-09-29T04:14:39;97696.78;;;14.05;100.00
15670;BME280;18524;45.190;5.732;2022-09-29T04:19:29;97696.69;;;13.98;100.00
15670;BME280;18524;45.190;5.732;2022-09-29T04:24:20;97689.97;;;13.96;100.00
15670;BME280;18524;45.190;5.732;2022-09-29T04:29:10;97684.88;;;13.94;100.00
15670;BME280;18524;45.190;5.732;2022-09-29T04:34:00;97685.78;;;14.01;100.00
15670;BME280;18524;45.190;5.732;2022-09-29T04:38:51;97688.41;;;14.01;100.00
15670;BME280;18524;45.190;5.732;2022-09-29T04:43:42;97693.88;;;14.00;100.00
15670;BME280;18524;45.190;5.732;2022-09-29T04:48:34;97700.59;;;14.02;100.00
15670;BME280;18524;45.190;5.732;2022-09-29T04:53:25;97694.50;;;14.02;100.00
15670;BME280;18524;45.190;5.732;2022-09-29T04:58:15;97692.88;;;14.01;100.00
15670;BME280;18524;45.190;5.732;2022-09-29T05:03:05;97704.59;;;13.98;100.00
15670;BME280;18524;45.190;5.732;2022-09-29T05:07:56;97711.50;;;13.99;100.00
15670;BME280;18524;45.190;5.732;2022-09-29T05:12:49;97711.50;;;13.99;100.00
15670;BME280;18524;45.190;5.732;2022-09-29T05:17:39;97720.03;;;14.01;100.00
15670;BME280;18524;45.190;5.732;2022-09-29T05:22:30;97712.69;;;13.97;100.00
15670;BME280;18524;45.190;5.732;2022-09-29T05:27:20;97708.41;;;13.96;100.00
15670;BME280;18524;45.190;5.732;2022-09-29T05:32:12;97714.13;;;13.99;100.00
15670;BME280;18524;45.190;5.732;2022-09-29T05:37:02;97717.41;;;14.01;100.00
15670;BME280;18524;45.190;5.732;2022-09-29T05:41:53;97724.41;;;13.94;100.00
15670;BME280;18524;45.190;5.732;2022-09-29T05:46:44;97739.47;;;13.86;100.00
15670;BME280;18524;45.190;5.732;2022-09-29T05:51:35;97737.47;;;13.88;100.00
15670;BME280;18524;45.190;5.732;2022-09-29T05:56:26;97738.84;;;13.84;100.00
15670;BME280;18524;45.190;5.732;2022-09-29T06:01:19;97738.19;;;13.82;100.00
15670;BME280;18524;45.190;5.732;2022-09-29T06:06:18;97734.94;;;13.80;100.00
15670;BME280;18524;45.190;5.732;2022-09-29T06:11:12;97736.66;;;13.87;100.00
15670;BME280;18524;45.190;5.732;2022-09-29T06:16:03;97751.47;;;13.88;100.00
15670;BME280;18524;45.190;5.732;2022-09-29T06:20:53;97744.13;;;13.98;100.00
15670;BME280;18524;45.190;5.732;2022-09-29T06:25:54;97744.66;;;13.94;100.00
15670;BME280;18524;45.190;5.732;2022-09-29T06:30:45;97739.41;;;13.94;100.00
15670;BME280;18524;45.190;5.732;2022-09-29T06:35:35;97733.31;;;13.93;100.00
15670;BME280;18524;45.190;5.732;2022-09-29T06:40:44;97738.22;;;13.96;100.00
15670;BME280;18524;45.190;5.732;2022-09-29T06:45:34;97727.69;;;14.11;100.00
15670;BME280;18524;45.190;5.732;2022-09-29T06:50:25;97726.63;;;14.20;100.00
15670;BME280;18524;45.190;5.732;2022-09-29T06:55:15;97721.63;;;14.25;100.00
15670;BME280;18524;45.190;5.732;2022-09-29T07:00:06;97724.97;;;14.34;100.00
15670;BME280;18524;45.190;5.732;2022-09-29T07:04:56;97716.06;;;14.35;100.00
15670;BME280;18524;45.190;5.732;2022-09-29T07:09:47;97718.16;;;14.39;100.00
15670;BME280;18524;45.190;5.732;2022-09-29T07:14:37;97724.88;;;14.42;100.00
15670;BME280;18524;45.190;5.732;2022-09-29T07:19:27;97721.38;;;14.50;100.00
15670;BME280;18524;45.190;5.732;2022-09-29T07:24:18;97720.47;;;14.57;100.00
15670;BME280;18524;45.190;5.732;2022-09-29T07:29:09;97726.16;;;14.76;100.00
15670;BME280;18524;45.190;5.732;2022-09-29T07:33:59;97721.25;;;14.73;100.00
15670;BME280;18524;45.190;5.732;2022-09-29T07:38:50;97729.09;;;14.66;100.00
15670;BME280;18524;45.190;5.732;2022-09-29T07:43:41;97719.34;;;14.66;100.00
15670;BME280;18524;45.190;5.732;2022-09-29T07:48:32;97719.72;;;14.63;100.00
15670;BME280;18524;45.190;5.732;2022-09-29T07:53:23;97720.16;;;14.67;100.00
15670;BME280;18524;45.190;5.732;2022-09-29T07:58:13;97718.50;;;14.81;100.00
15670;BME280;18524;45.190;5.732;2022-09-29T08:03:05;97711.31;;;14.75;100.00
15670;BME280;18524;45.190;5.732;2022-09-29T08:08:02;97719.50;;;14.80;100.00
15670;BME280;18524;45.190;5.732;2022-09-29T08:12:53;97728.78;;;14.90;100.00
15670;BME280;18524;45.190;5.732;2022-09-29T08:17:44;97727.09;;;15.04;100.00
15670;BME280;18524;45.190;5.732;2022-09-29T08:22:34;97729.56;;;15.06;100.00
15670;BME280;18524;45.190;5.732;2022-09-29T08:27:25;97734.66;;;15.07;100.00
15670;BME280;18524;45.190;5.732;2022-09-29T08:32:15;97734.66;;;15.07;100.00
15670;BME280;18524;45.190;5.732;2022-09-29T08:37:06;97733.25;;;15.11;100.00
15670;BME280;18524;45.190;5.732;2022-09-29T08:42:10;97735.34;;;15.16;100.00
15670;BME280;18524;45.190;5.732;2022-09-29T08:47:18;97741.34;;;15.24;100.00
15670;BME280;18524;45.190;5.732;2022-09-29T08:52:13;97725.22;;;15.19;100.00
15670;BME280;18524;45.190;5.732;2022-09-29T08:57:05;97738.44;;;15.41;100.00
15670;BME280;18524;45.190;5.732;2022-09-29T09:02:06;97735.88;;;15.26;100.00
15670;BME280;18524;45.190;5.732;2022-09-29T09:22:41;97744.09;;;16.02;100.00
15670;BME280;18524;45.190;5.732;2022-09-29T09:27:43;97747.13;;;15.99;100.00
15670;BME280;18524;45.190;5.732;2022-09-29T09:32:40;97741.78;;;16.20;100.00
15670;BME280;18524;45.190;5.732;2022-09-29T09:37:38;97732.28;;;16.32;99.93
15670;BME280;18524;45.190;5.732;2022-09-29T09:42:33;97723.69;;;16.65;98.42
15670;BME280;18524;45.190;5.732;2022-09-29T09:47:27;97717.81;;;17.17;100.00
15670;BME280;18524;45.190;5.732;2022-09-29T10:02:28;97703.13;;;18.40;83.85
15670;BME280;18524;45.190;5.732;2022-09-29T10:07:23;97708.38;;;18.60;83.11
15670;BME280;18524;45.190;5.732;2022-09-29T10:12:15;97714.34;;;19.07;81.41
15670;BME280;18524;45.190;5.732;2022-09-29T10:17:10;97709.13;;;18.87;78.33
15670;BME280;18524;45.190;5.732;2022-09-29T10:22:12;97704.84;;;18.79;77.09
15670;BME280;18524;45.190;5.732;2022-09-29T10:27:03;97703.72;;;18.62;78.44
15670;BME280;18524;45.190;5.732;2022-09-29T10:32:08;97717.25;;;18.27;76.63
15670;BME280;18524;45.190;5.732;2022-09-29T10:37:19;97708.09;;;18.10;78.21
15670;BME280;18524;45.190;5.732;2022-09-29T10:42:23;97712.78;;;17.81;79.63
15670;BME280;18524;45.190;5.732;2022-09-29T10:47:14;97718.69;;;17.64;79.19
15670;BME280;18524;45.190;5.732;2022-09-29T10:52:08;97718.69;;;17.57;78.31
15670;BME280;18524;45.190;5.732;2022-09-29T10:57:13;97717.41;;;17.13;81.36
15670;BME280;18524;45.190;5.732;2022-09-29T11:02:04;97712.72;;;17.15;79.89
15670;BME280;18524;45.190;5.732;2022-09-29T11:06:55;97718.03;;;17.22;81.67
15670;BME280;18524;45.190;5.732;2022-09-29T11:16:37;97733.94;;;17.42;79.79
15670;BME280;18524;45.190;5.732;2022-09-29T11:27:10;97732.91;;;17.16;85.28
15670;BME280;18524;45.190;5.732;2022-09-29T11:32:25;97730.59;;;17.07;85.42
15670;BME280;18524;45.190;5.732;2022-09-29T11:42:59;97732.69;;;17.11;86.38
15670;BME280;18524;45.190;5.732;2022-09-29T11:48:37;97735.47;;;17.03;86.47
15670;BME280;18524;45.190;5.732;2022-09-29T11:53:50;97740.16;;;16.95;87.65
15670;BME280;18524;45.190;5.732;2022-09-29T11:58:59;97733.41;;;16.92;88.37
15670;BME280;18524;45.190;5.732;2022-09-29T12:09:55;97725.22;;;16.80;84.28
15670;BME280;18524;45.190;5.732;2022-09-29T12:19:40;97730.94;;;16.84;83.00
15670;BME280;18524;45.190;5.732;2022-09-29T12:24:39;97747.47;;;16.86;83.24
15670;BME280;18524;45.190;5.732;2022-09-29T12:29:40;97751.91;;;16.79;83.29
15670;BME280;18524;45.190;5.732;2022-09-29T12:34:41;97754.34;;;16.74;80.56
15670;BME280;18524;45.190;5.732;2022-09-29T12:44:47;97744.47;;;17.09;78.52
15670;BME280;18524;45.190;5.732;2022-09-29T12:49:56;97748.94;;;17.08;74.62
15670;BME280;18524;45.190;5.732;2022-09-29T12:54:56;97746.84;;;16.84;71.99
15670;BME280;18524;45.190;5.732;2022-09-29T13:00:02;97751.19;;;16.64;71.91
15670;BME280;18524;45.190;5.732;2022-09-29T13:16:01;97750.31;;;16.50;72.81
15670;BME280;18524;45.190;5.732;2022-09-29T13:31:48;97758.06;;;16.58;71.18
15670;BME280;18524;45.190;5.732;2022-09-29T13:36:40;97765.19;;;16.57;70.95
15670;BME280;18524;45.190;5.732;2022-09-29T13:41:36;97758.44;;;16.48;72.69
15670;BME280;18524;45.190;5.732;2022-09-29T13:56:37;97771.28;;;16.51;69.96
15670;BME280;18524;45.190;5.732;2022-09-29T14:06:22;97785.75;;;16.55;71.33
15670;BME280;18524;45.190;5.732;2022-09-29T14:16:18;97791.75;;;16.71;78.46
15670;BME280;18524;45.190;5.732;2022-09-29T14:21:13;97795.72;;;16.81;79.61
15670;BME280;18524;45.190;5.732;2022-09-29T14:26:47;97799.19;;;16.54;81.13
15670;BME280;18524;45.190;5.732;2022-09-29T14:31:38;97802.44;;;16.56;84.21
15670;BME280;18524;45.190;5.732;2022-09-29T14:36:32;97812.22;;;16.55;83.56
15670;BME280;18524;45.190;5.732;2022-09-29T14:46:38;97818.84;;;16.38;82.82
15670;BME280;18524;45.190;5.732;2022-09-29T14:52:03;97821.69;;;16.15;84.18
15670;BME280;18524;45.190;5.732;2022-09-29T15:02:27;97822.91;;;16.13;86.12
15670;BME280;18524;45.190;5.732;2022-09-29T15:07:25;97830.13;;;16.25;85.99
15670;BME280;18524;45.190;5.732;2022-09-29T15:12:27;97829.22;;;16.40;84.15
15670;BME280;18524;45.190;5.732;2022-09-29T15:27:31;97822.03;;;16.34;81.57
15670;BME280;18524;45.190;5.732;2022-09-29T15:32:26;97832.25;;;16.37;80.84
15670;BME280;18524;45.190;5.732;2022-09-29T15:37:17;97832.72;;;16.19;82.74
15670;BME280;18524;45.190;5.732;2022-09-29T15:42:16;97835.50;;;16.11;83.74
15670;BME280;18524;45.190;5.732;2022-09-29T15:47:26;97852.00;;;15.70;84.35
15670;BME280;18524;45.190;5.732;2022-09-29T15:52:17;97860.56;;;15.72;84.66
15670;BME280;18524;45.190;5.732;2022-09-29T15:57:47;97853.28;;;15.59;86.22
15670;BME280;18524;45.190;5.732;2022-09-29T16:02:51;97858.84;;;15.50;86.97
15670;BME280;18524;45.190;5.732;2022-09-29T16:07:55;97860.59;;;15.43;87.53
15670;BME280;18524;45.190;5.732;2022-09-29T16:12:56;97865.91;;;15.28;87.79
15670;BME280;18524;45.190;5.732;2022-09-29T16:17:48;97875.47;;;15.14;89.33
15670;BME280;18524;45.190;5.732;2022-09-29T16:22:39;97865.28;;;15.11;89.56
15670;BME280;18524;45.190;5.732;2022-09-29T16:27:54;97870.59;;;14.96;89.77
15670;BME280;18524;45.190;5.732;2022-09-29T16:32:56;97883.16;;;14.94;90.43
15670;BME280;18524;45.190;5.732;2022-09-29T16:37:50;97881.75;;;14.84;90.27
15670;BME280;18524;45.190;5.732;2022-09-29T16:42:51;97897.41;;;14.70;90.63
15670;BME280;18524;45.190;5.732;2022-09-29T16:47:44;97890.91;;;14.44;93.38
15670;BME280;18524;45.190;5.732;2022-09-29T16:52:45;97893.59;;;14.58;92.59
15670;BME280;18524;45.190;5.732;2022-09-29T16:57:49;97898.28;;;14.48;92.46
15670;BME280;18524;45.190;5.732;2022-09-29T17:02:40;97904.78;;;14.37;94.16
15670;BME280;18524;45.190;5.732;2022-09-29T17:07:31;97908.91;;;14.17;95.92
15670;BME280;18524;45.190;5.732;2022-09-29T17:12:29;97907.44;;;14.15;96.53
15670;BME280;18524;45.190;5.732;2022-09-29T17:17:22;97908.66;;;14.27;93.61
15670;BME280;18524;45.190;5.732;2022-09-29T17:22:27;97923.44;;;14.13;94.43
15670;BME280;18524;45.190;5.732;2022-09-29T17:27:19;97927.53;;;14.16;94.48
15670;BME280;18524;45.190;5.732;2022-09-29T17:32:28;97941.28;;;14.03;95.53
15670;BME280;18524;45.190;5.732;2022-09-29T17:37:18;97941.34;;;13.95;94.92
15670;BME280;18524;45.190;5.732;2022-09-29T17:42:09;97950.78;;;13.89;96.11
15670;BME280;18524;45.190;5.732;2022-09-29T17:46:59;97946.50;;;13.88;96.06
15670;BME280;18524;45.190;5.732;2022-09-29T17:51:50;97945.72;;;13.80;96.62
15670;BME280;18524;45.190;5.732;2022-09-29T17:56:42;97947.03;;;13.84;98.72
15670;BME280;18524;45.190;5.732;2022-09-29T18:01:33;97956.44;;;13.78;100.00
15670;BME280;18524;45.190;5.732;2022-09-29T18:06:23;97959.72;;;13.80;100.00
15670;BME280;18524;45.190;5.732;2022-09-29T18:11:20;97961.00;;;13.84;98.50
15670;BME280;18524;45.190;5.732;2022-09-29T18:16:17;97970.44;;;13.70;100.00
15670;BME280;18524;45.190;5.732;2022-09-29T18:21:08;97965.09;;;13.56;100.00
15670;BME280;18524;45.190;5.732;2022-09-29T18:25:59;97980.09;;;13.55;100.00
15670;BME280;18524;45.190;5.732;2022-09-29T18:30:55;97966.44;;;13.52;100.00
15670;BME280;18524;45.190;5.732;2022-09-29T18:35:52;97965.63;;;13.51;100.00
15670;BME280;18524;45.190;5.732;2022-09-29T18:40:42;97973.38;;;13.44;100.00
15670;BME280;18524;45.190;5.732;2022-09-29T18:45:35;97979.00;;;13.41;100.00
15670;BME280;18524;45.190;5.732;2022-09-29T18:50:28;97969.44;;;13.40;100.00
15670;BME280;18524;45.190;5.732;2022-09-29T18:55:22;97975.38;;;13.34;100.00
15670;BME280;18524;45.190;5.732;2022-09-29T19:00:15;97990.00;;;13.37;100.00
15670;BME280;18524;45.190;5.732;2022-09-29T19:05:05;97988.38;;;13.36;100.00
15670;BME280;18524;45.190;5.732;2022-09-29T19:09:56;97985.25;;;13.32;100.00
15670;BME280;18524;45.190;5.732;2022-09-29T19:14:47;97990.53;;;13.24;100.00
15670;BME280;18524;45.190;5.732;2022-09-29T19:19:37;97987.59;;;13.11;100.00
15670;BME280;18524;45.190;5.732;2022-09-29T19:24:27;97996.63;;;13.00;100.00
15670;BME280;18524;45.190;5.732;2022-09-29T19:29:18;98009.16;;;13.06;100.00
15670;BME280;18524;45.190;5.732;2022-09-29T19:34:10;98019.38;;;13.01;100.00
15670;BME280;18524;45.190;5.732;2022-09-29T19:39:00;98009.31;;;13.13;100.00
15670;BME280;18524;45.190;5.732;2022-09-29T19:43:53;98017.06;;;13.06;100.00
15670;BME280;18524;45.190;5.732;2022-09-29T19:48:43;98017.72;;;13.08;100.00
15670;BME280;18524;45.190;5.732;2022-09-29T19:53:34;98029.38;;;12.98;100.00
15670;BME280;18524;45.190;5.732;2022-09-29T19:58:24;98032.69;;;12.92;100.00
15670;BME280;18524;45.190;5.732;2022-09-29T20:03:15;98039.75;;;12.83;100.00
15670;BME280;18524;45.190;5.732;2022-09-29T20:08:06;98037.13;;;12.91;100.00
15670;BME280;18524;45.190;5.732;2022-09-29T20:12:57;98042.53;;;12.98;100.00
15670;BME280;18524;45.190;5.732;2022-09-29T20:17:48;98037.59;;;12.95;100.00
15670;BME280;18524;45.190;5.732;2022-09-29T20:22:38;98032.34;;;12.87;100.00
15670;BME280;18524;45.190;5.732;2022-09-29T20:27:29;98035.31;;;12.83;100.00
15670;BME280;18524;45.190;5.732;2022-09-29T20:32:20;98044.38;;;12.65;100.00
15670;BME280;18524;45.190;5.732;2022-09-29T20:37:11;98051.13;;;12.67;100.00
15670;BME280;18524;45.190;5.732;2022-09-29T20:42:02;98057.97;;;12.60;100.00
15670;BME280;18524;45.190;5.732;2022-09-29T20:46:54;98055.69;;;12.57;100.00
15670;BME280;18524;45.190;5.732;2022-09-29T20:51:45;98061.59;;;12.59;100.00
15670;BME280;18524;45.190;5.732;2022-09-29T20:56:35;98048.78;;;12.48;100.00
15670;BME280;18524;45.190;5.732;2022-09-29T21:01:31;98055.03;;;12.47;100.00
15670;BME280;18524;45.190;5.732;2022-09-29T21:06:24;98060.75;;;12.34;100.00
15670;BME280;18524;45.190;5.732;2022-09-29T21:11:15;98067.97;;;12.32;100.00
15670;BME280;18524;45.190;5.732;2022-09-29T21:16:07;98075.53;;;12.27;100.00
15670;BME280;18524;45.190;5.732;2022-09-29T21:21:01;98076.03;;;12.31;100.00
15670;BME280;18524;45.190;5.732;2022-09-29T21:31:03;98087.97;;;12.25;100.00
15670;BME280;18524;45.190;5.732;2022-09-29T21:35:55;98088.09;;;12.07;100.00
15670;BME280;18524;45.190;5.732;2022-09-29T21:40:46;98101.06;;;12.01;100.00
15670;BME280;18524;45.190;5.732;2022-09-29T21:45:36;98101.56;;;12.04;100.00
15670;BME280;18524;45.190;5.732;2022-09-29T21:50:26;98108.28;;;11.99;100.00
15670;BME280;18524;45.190;5.732;2022-09-29T21:55:17;98116.00;;;12.00;100.00
15670;BME280;18524;45.190;5.732;2022-09-29T22:00:07;98121.31;;;12.16;100.00
15670;BME280;18524;45.190;5.732;2022-09-29T22:04:59;98129.84;;;12.10;100.00
15670;BME280;18524;45.190;5.732;2022-09-29T22:09:49;98137.50;;;11.96;100.00
15670;BME280;18524;45.190;5.732;2022-09-29T22:14:39;98140.94;;;11.96;100.00
15670;BME280;18524;45.190;5.732;2022-09-29T22:19:30;98148.50;;;11.99;100.00
15670;BME280;18524;45.190;5.732;2022-09-29T22:24:20;98158.16;;;11.91;100.00
15670;BME280;18524;45.190;5.732;2022-09-29T22:29:11;98163.09;;;11.94;100.00
15670;BME280;18524;45.190;5.732;2022-09-29T22:34:03;98161.22;;;11.86;100.00
15670;BME280;18524;45.190;5.732;2022-09-29T22:38:54;98158.25;;;11.81;100.00
15670;BME280;18524;45.190;5.732;2022-09-29T22:43:44;98159.50;;;11.77;100.00
15670;BME280;18524;45.190;5.732;2022-09-29T22:48:35;98157.34;;;11.72;100.00
15670;BME280;18524;45.190;5.732;2022-09-29T22:53:25;98160.50;;;11.76;100.00
15670;BME280;18524;45.190;5.732;2022-09-29T22:58:16;98159.47;;;11.69;100.00
15670;BME280;18524;45.190;5.732;2022-09-29T23:03:07;98159.41;;;11.61;100.00
15670;BME280;18524;45.190;5.732;2022-09-29T23:07:59;98163.38;;;11.65;100.00
15670;BME280;18524;45.190;5.732;2022-09-29T23:12:49;98164.53;;;11.62;100.00
15670;BME280;18524;45.190;5.732;2022-09-29T23:17:40;98158.00;;;11.48;100.00
15670;BME280;18524;45.190;5.732;2022-09-29T23:22:31;98162.84;;;11.35;100.00
15670;BME280;18524;45.190;5.732;2022-09-29T23:27:21;98163.03;;;11.42;100.00
15670;BME280;18524;45.190;5.732;2022-09-29T23:32:12;98167.56;;;11.32;100.00
15670;BME280;18524;45.190;5.732;2022-09-29T23:37:03;98168.25;;;11.34;100.00
15670;BME280;18524;45.190;5.732;2022-09-29T23:41:53;98177.00;;;11.42;100.00
15670;BME280;18524;45.190;5.732;2022-09-29T23:46:44;98179.72;;;11.33;100.00
15670;BME280;18524;45.190;5.732;2022-09-29T23:51:37;98179.44;;;11.18;100.00
15670;BME280;18524;45.190;5.732;2022-09-29T23:56:28;98173.38;;;11.17;100.00
